Aérodrome :
LOGIN :

S'inscrire | Disclaimer

   EN    FR    IT 

 










Légende :    VFR   VFR Marginal   IFR   IFR Intensif   IFR Très Intensif
Visi : 
Plafond : 
>= 8 km
>= 3000ft
5 à 8 km
1000 à 3000 ft
1500m à 5 km
500 à 1000 ft
800 à 1500m
200 à 500 ft
< 800m
< 200 ft
Symboles :   Orages  Brouillard  Fortes neiges  Fortes précipitations  Vent > 20 kt
SIGMETs :   Divers  Orages  Givrage  Turbulence  Onde Orograph.  Cendres Volcan.






- Altitude de l'aérodrome : 3 ft
- Code IATA : LWR


EHLW - Leuuwarden Air Base

DERNIER METAR :
  • 232155Z AUTO 18012KT 140V220 9999 DZ FEW015CB SCT080 BKN085 16/14 Q0997 BLU

METARs EXPIRÉS :
  • 232146Z AUTO 18012KT 140V220 9999 -DZ FEW015CB SCT078 BKN089 16/14 Q0997 BLU
  • 232131Z AUTO 18012KT 130V210 9999 -RA BKN015CB SCT081 OVC086 16/14 Q0997 WHT
  • 232125Z AUTO 17011KT 120V200 9999 SHRA BKN015CB BKN081 OVC087 16/14 Q0997 REDZ WHT
  • 232114Z AUTO 17010KT 120V190 9999 -SHRA SCT015CB BKN082 OVC088 16/14 Q0997 WHT
  • 232055Z AUTO 16008KT 110V180 9999 -RA FEW015CB BKN038 BKN046 16/14 Q0997 RERA REDZ BLU
  • 232025Z AUTO 16007KT 130V200 9999 FEW049 OVC071 16/14 Q0998 BLU
  • 231955Z AUTO 18008KT 140V210 9999 BKN062 OVC070 16/14 Q0999 BLU
  • 231925Z AUTO 19008KT 150V230 9999 OVC140 16/14 Q0999 BLU

TAF TAF EHLW
Valide du 23 à 21h jusqu'au 24 à 09h UTC


232041Z 2321/2409 19008KT 9999 SCT040
BECMG 2321/2322 22015G25KT
TEMPO 2321/2402 4000 SHRA SCT015 SCT020CB
PROB30
TEMPO 2321/2402 3000 TSRA SCT012 SCT018CB
TEMPO 2323/2405 23017G32KT



MET'MAP, la Météo Aéronautique d'un coup d'oeil ! - Copyright ORBIFLY Décembre 2007 - Disclaimer

ORBIFLY MET'MAP TEAM :

Programmation & Développement : Alexandra Zaïnal
Sur une idée originale de : Baudouin d'Aumeries
Assistance à la programmation : Marc-Olivier Méhu
Soutien technique & logistique : Manuel Goepfert

Contact : metmap@orbifly.com




SOURCES & CREDITS :

   NOAA